createdAt,value
2023-08-01T00:02:18.069Z,8.23
2023-08-01T00:05:20.741Z,7.95
2023-08-01T00:08:23.113Z,7.83
2023-08-01T00:11:25.717Z,9.77
2023-08-01T00:14:28.180Z,6.97
2023-08-01T00:17:30.981Z,6.82
2023-08-01T00:20:33.431Z,6.57
2023-08-01T00:23:36.147Z,7.00
2023-08-01T00:26:38.995Z,6.57
2023-08-01T00:29:42.453Z,7.45
2023-08-01T00:32:44.932Z,10.15
2023-08-01T00:35:54.967Z,8.20
2023-08-01T00:38:57.374Z,9.00
2023-08-01T00:42:00.778Z,10.25
2023-08-01T00:45:03.302Z,7.80
2023-08-01T00:48:06.617Z,7.53
2023-08-01T00:51:11.071Z,5.82
2023-08-01T00:54:13.884Z,8.37
2023-08-01T00:57:16.376Z,6.78
2023-08-01T01:00:19.082Z,8.45
2023-08-01T01:03:22.319Z,7.75
2023-08-01T01:06:42.377Z,5.70
2023-08-01T01:09:45.363Z,6.73
2023-08-01T01:12:48.886Z,8.45
2023-08-01T01:15:51.984Z,5.90
2023-08-01T01:18:54.730Z,7.35
2023-08-01T01:21:59.008Z,5.32
2023-08-01T01:25:03.516Z,6.50
2023-08-01T01:28:08.477Z,5.87
2023-08-01T01:31:11.175Z,6.97
2023-08-01T01:34:13.980Z,7.62
2023-08-01T01:37:16.611Z,5.43
2023-08-01T01:40:19.054Z,9.13
2023-08-01T01:43:21.687Z,6.20
2023-08-01T01:46:24.138Z,9.43
2023-08-01T01:49:27.359Z,6.60
2023-08-01T01:52:29.880Z,7.32
2023-08-01T01:55:32.503Z,5.97
2023-08-01T01:58:35.648Z,5.82
2023-08-01T02:01:38.309Z,6.50
2023-08-01T02:04:41.041Z,5.95
2023-08-01T02:07:43.462Z,6.45
2023-08-01T02:10:46.142Z,6.90
2023-08-01T02:13:48.505Z,5.78
2023-08-01T02:16:51.261Z,8.10
2023-08-01T02:19:53.717Z,9.35
2023-08-01T02:22:56.545Z,6.72
2023-08-01T02:25:58.960Z,6.13
2023-08-01T02:29:01.728Z,7.37
2023-08-01T02:32:04.334Z,6.68
2023-08-01T02:35:07.337Z,9.45
2023-08-01T02:38:09.840Z,10.20
2023-08-01T02:41:12.535Z,11.50
2023-08-01T02:44:15.120Z,10.90
2023-08-01T02:47:17.809Z,9.70
2023-08-01T02:50:20.218Z,10.13
2023-08-01T02:53:23.019Z,8.82
2023-08-01T02:56:25.490Z,8.93
2023-08-01T02:59:28.180Z,6.32
2023-08-01T03:02:30.591Z,8.10
2023-08-01T03:05:33.516Z,7.90
2023-08-01T03:08:35.933Z,8.65
2023-08-01T03:11:39.028Z,7.70
2023-08-01T03:14:44.418Z,5.87
2023-08-01T03:17:47.145Z,8.00
2023-08-01T03:20:49.585Z,7.85
2023-08-01T03:23:52.266Z,7.60
2023-08-01T03:26:54.651Z,7.77
2023-08-01T03:29:57.314Z,9.00
2023-08-01T03:33:00.522Z,10.98
2023-08-01T03:36:05.051Z,8.45
2023-08-01T03:39:07.410Z,8.13
2023-08-01T03:42:10.080Z,7.40
2023-08-01T03:45:12.546Z,9.90
2023-08-01T03:48:15.196Z,6.95
2023-08-01T03:51:19.003Z,7.90
2023-08-01T03:54:21.646Z,9.20
2023-08-01T03:57:24.166Z,6.70
2023-08-01T04:00:27.228Z,10.07
2023-08-01T04:03:29.990Z,6.95
2023-08-01T04:06:32.431Z,10.07
2023-08-01T04:09:35.255Z,7.28
2023-08-01T04:12:37.581Z,6.60
2023-08-01T04:15:40.280Z,7.70
2023-08-01T04:18:42.683Z,8.23
2023-08-01T04:21:45.363Z,7.05
2023-08-01T04:24:47.715Z,7.47
2023-08-01T04:27:50.394Z,7.50
2023-08-01T04:30:53.721Z,6.82
2023-08-01T04:33:56.557Z,9.13
2023-08-01T04:36:58.961Z,7.78
2023-08-01T04:40:01.648Z,10.10
2023-08-01T04:43:04.232Z,10.30
2023-08-01T04:46:06.919Z,8.63
2023-08-01T04:49:09.294Z,8.52
2023-08-01T04:52:11.968Z,10.45
2023-08-01T04:55:14.622Z,10.23
2023-08-01T04:58:17.359Z,11.83
2023-08-01T05:01:19.714Z,11.55
2023-08-01T05:04:22.566Z,10.35
2023-08-01T05:07:24.944Z,10.45
2023-08-01T05:10:27.673Z,11.30
2023-08-01T05:13:30.187Z,15.57
2023-08-01T05:16:32.883Z,13.32
2023-08-01T05:19:35.379Z,10.65
2023-08-01T05:22:37.992Z,17.27
2023-08-01T05:25:40.426Z,11.43
2023-08-01T05:28:43.155Z,10.20
2023-08-01T05:31:45.614Z,11.18
2023-08-01T05:34:48.354Z,12.80
2023-08-01T05:37:50.724Z,12.70
2023-08-01T05:40:53.611Z,9.85
2023-08-01T05:43:56.093Z,13.17
2023-08-01T05:46:58.736Z,11.70
2023-08-01T05:50:01.106Z,9.88
2023-08-01T05:53:03.764Z,10.95
2023-08-01T05:56:06.424Z,10.10
2023-08-01T05:59:09.186Z,11.17
2023-08-01T06:02:11.619Z,20.62
2023-08-01T06:05:14.630Z,15.23
2023-08-01T06:08:17.155Z,12.00
2023-08-01T06:11:20.033Z,14.77
2023-08-01T06:14:22.557Z,18.63
2023-08-01T06:17:25.317Z,13.57
2023-08-01T06:20:30.786Z,12.27
2023-08-01T06:23:33.720Z,12.82
2023-08-01T06:26:36.416Z,13.00
2023-08-01T06:29:41.260Z,13.00
2023-08-01T06:32:43.740Z,19.48
2023-08-01T06:35:46.505Z,13.40
2023-08-01T06:38:49.103Z,12.63
2023-08-01T06:41:51.913Z,16.35
2023-08-01T06:44:54.447Z,11.67
2023-08-01T06:47:57.230Z,8.18
2023-08-01T06:50:59.698Z,16.58
2023-08-01T06:54:02.386Z,11.15
2023-08-01T06:57:05.517Z,12.13
2023-08-01T07:00:09.176Z,9.03
2023-08-01T07:03:11.668Z,10.45
2023-08-01T07:06:14.466Z,10.23
2023-08-01T07:09:16.958Z,8.10
2023-08-01T07:12:19.714Z,6.85
2023-08-01T07:15:22.384Z,10.80
2023-08-01T07:18:25.104Z,9.30
2023-08-01T07:21:27.578Z,10.55
2023-08-01T07:24:30.221Z,7.87
2023-08-01T07:27:32.792Z,10.52
2023-08-01T07:30:35.492Z,12.37
2023-08-01T07:33:38.079Z,7.47
2023-08-01T07:36:41.087Z,10.95
2023-08-01T07:39:43.721Z,10.75
2023-08-01T07:42:47.450Z,7.15
2023-08-01T07:45:51.805Z,7.30
2023-08-01T07:48:55.394Z,7.45
2023-08-01T07:51:57.900Z,11.80
2023-08-01T07:55:00.792Z,8.88
2023-08-01T07:58:03.484Z,7.53
2023-08-01T08:01:07.423Z,8.37
2023-08-01T08:04:10.179Z,11.32
2023-08-01T08:07:12.778Z,9.73
2023-08-01T08:10:16.345Z,8.95
2023-08-01T08:13:19.587Z,15.25
2023-08-01T08:16:22.435Z,10.20
2023-08-01T08:19:26.424Z,10.98
2023-08-01T08:22:29.102Z,6.40
2023-08-01T08:25:31.557Z,7.72
2023-08-01T08:28:35.200Z,16.98
2023-08-01T08:31:37.857Z,8.57
2023-08-01T08:34:40.744Z,6.65
2023-08-01T08:37:43.196Z,6.05
2023-08-01T08:41:00.227Z,6.97
2023-08-01T08:44:06.218Z,9.48
2023-08-01T08:47:11.570Z,6.67
2023-08-01T08:50:15.026Z,8.35
2023-08-01T08:53:18.924Z,9.70
2023-08-01T08:56:21.599Z,10.73
2023-08-01T08:59:26.487Z,7.72
2023-08-01T09:02:29.500Z,6.47
2023-08-01T09:05:40.963Z,8.35
2023-08-01T09:08:52.349Z,7.53
2023-08-01T09:11:57.565Z,6.62
2023-08-01T09:15:00.435Z,8.40
2023-08-01T09:18:07.874Z,5.63
2023-08-01T09:21:10.423Z,7.12
2023-08-01T09:24:18.255Z,5.87
2023-08-01T09:27:23.310Z,7.53
2023-08-01T09:30:26.116Z,8.45
2023-08-01T09:33:39.766Z,9.90
2023-08-01T09:36:42.825Z,6.45
2023-08-01T09:39:47.811Z,6.32
2023-08-01T09:42:50.657Z,7.65
2023-08-01T09:45:54.692Z,7.18
2023-08-01T09:49:11.186Z,7.20
2023-08-01T09:52:13.650Z,7.57
2023-08-01T09:55:16.318Z,6.68
2023-08-01T09:58:22.246Z,6.43
2023-08-01T10:01:26.030Z,7.68
2023-08-01T10:04:31.553Z,16.00
2023-08-01T10:07:35.579Z,8.68
2023-08-01T10:10:38.841Z,9.02
2023-08-01T10:13:43.821Z,9.82
2023-08-01T10:16:47.192Z,6.60
2023-08-01T10:19:52.247Z,6.77
2023-08-01T10:22:55.405Z,6.93
2023-08-01T10:26:00.687Z,9.75
2023-08-01T10:29:03.747Z,5.47
2023-08-01T10:32:08.746Z,5.30
2023-08-01T10:35:11.641Z,9.30
2023-08-01T10:38:14.176Z,7.22
2023-08-01T10:41:21.185Z,7.00
2023-08-01T10:44:23.618Z,5.70
2023-08-01T10:47:28.268Z,6.43
2023-08-01T10:50:30.773Z,7.07
2023-08-01T10:53:42.391Z,8.00
2023-08-01T10:56:47.577Z,7.28
2023-08-01T10:59:50.405Z,6.12
2023-08-01T11:02:53.206Z,6.20
2023-08-01T11:05:59.371Z,5.47
2023-08-01T11:09:01.920Z,11.50
2023-08-01T11:12:05.260Z,5.30
2023-08-01T11:15:10.320Z,6.60
2023-08-01T11:18:13.182Z,11.77
2023-08-01T11:21:26.611Z,7.40
2023-08-01T11:24:29.358Z,6.18
2023-08-01T11:27:31.921Z,12.30
2023-08-01T11:30:35.006Z,7.45
2023-08-01T11:33:37.383Z,6.25
2023-08-01T11:36:40.768Z,5.97
2023-08-01T11:39:43.696Z,9.55
2023-08-01T11:42:53.679Z,8.02
2023-08-01T11:45:57.815Z,6.62
2023-08-01T11:49:03.994Z,8.93
2023-08-01T11:52:08.544Z,10.07
2023-08-01T11:55:20.694Z,5.03
2023-08-01T11:58:33.941Z,8.68
2023-08-01T12:01:45.807Z,7.18
2023-08-01T12:04:48.773Z,7.50
2023-08-01T12:07:51.612Z,9.33
2023-08-01T12:10:54.391Z,7.10
2023-08-01T12:14:13.011Z,7.22
2023-08-01T12:17:15.771Z,4.53
2023-08-01T12:20:18.258Z,6.10
2023-08-01T12:23:21.470Z,7.33
2023-08-01T12:26:24.194Z,4.50
2023-08-01T12:29:26.872Z,5.95
2023-08-01T12:32:29.234Z,5.03
2023-08-01T12:35:32.003Z,9.07
2023-08-01T12:38:34.409Z,5.97
2023-08-01T12:41:37.985Z,5.95
2023-08-01T12:44:40.500Z,5.18
2023-08-01T12:47:43.576Z,7.85
2023-08-01T12:50:46.827Z,5.72
2023-08-01T12:53:49.638Z,5.23
2023-08-01T12:56:52.445Z,5.90
2023-08-01T12:59:55.354Z,6.12
2023-08-01T13:02:57.986Z,8.27
2023-08-01T13:06:00.749Z,6.00
2023-08-01T13:09:03.985Z,7.73
2023-08-01T13:12:07.458Z,6.00
2023-08-01T13:15:17.402Z,6.50
2023-08-01T13:18:21.112Z,7.40
2023-08-01T13:21:24.138Z,6.53
2023-08-01T13:24:26.889Z,7.63
2023-08-01T13:27:29.262Z,5.30
2023-08-01T13:30:32.225Z,5.82
2023-08-01T13:33:34.773Z,7.93
2023-08-01T13:36:37.665Z,6.78
2023-08-01T13:39:40.549Z,6.17
2023-08-01T13:42:43.250Z,7.95
2023-08-01T13:45:45.947Z,7.05
2023-08-01T13:48:51.222Z,6.68
2023-08-01T13:51:53.752Z,5.85
2023-08-01T13:54:56.690Z,6.77
2023-08-01T13:57:59.179Z,6.85
2023-08-01T14:01:06.200Z,6.82
2023-08-01T14:04:09.075Z,6.78
2023-08-01T14:07:11.717Z,7.07
2023-08-01T14:10:15.923Z,6.77
2023-08-01T14:13:18.634Z,10.93
2023-08-01T14:16:21.429Z,7.53
2023-08-01T14:19:23.877Z,7.40
2023-08-01T14:22:26.585Z,6.95
2023-08-01T14:25:30.696Z,12.13
2023-08-01T14:28:34.881Z,9.40
2023-08-01T14:31:37.332Z,7.10
2023-08-01T14:34:40.311Z,7.18
2023-08-01T14:37:46.369Z,5.82
2023-08-01T14:41:06.074Z,7.10
2023-08-01T14:44:11.579Z,6.37
2023-08-01T14:47:15.072Z,7.28
2023-08-01T14:50:17.539Z,9.57
2023-08-01T14:53:20.341Z,9.07
2023-08-01T14:56:23.270Z,10.23
2023-08-01T14:59:26.018Z,5.15
2023-08-01T15:02:28.558Z,6.10
2023-08-01T15:05:31.309Z,7.25
2023-08-01T15:08:34.222Z,11.48
2023-08-01T15:11:37.025Z,5.20
2023-08-01T15:14:39.404Z,6.22
2023-08-01T15:17:42.231Z,5.40
2023-08-01T15:20:44.832Z,11.18
2023-08-01T15:23:47.599Z,6.15
2023-08-01T15:26:49.979Z,10.00
2023-08-01T15:29:52.724Z,5.95
2023-08-01T15:32:55.120Z,5.47
2023-08-01T15:36:03.112Z,7.60
2023-08-01T15:39:05.805Z,6.20
2023-08-01T15:42:08.543Z,6.20
2023-08-01T15:45:11.018Z,10.15
2023-08-01T15:48:13.686Z,6.35
2023-08-01T15:51:16.076Z,7.30
2023-08-01T15:54:18.757Z,6.05
2023-08-01T15:57:21.161Z,7.17
2023-08-01T16:00:24.513Z,6.45
2023-08-01T16:03:28.284Z,9.95
2023-08-01T16:06:30.923Z,8.77
2023-08-01T16:09:33.756Z,7.82
2023-08-01T16:12:36.174Z,6.43
2023-08-01T16:15:40.473Z,8.27
2023-08-01T16:18:42.878Z,8.93
2023-08-01T16:21:45.716Z,6.43
2023-08-01T16:24:48.123Z,9.57
2023-08-01T16:27:52.118Z,6.00
2023-08-01T16:30:54.612Z,7.00
2023-08-01T16:33:57.254Z,5.80
2023-08-01T16:36:59.751Z,7.12
2023-08-01T16:40:02.453Z,7.80
2023-08-01T16:43:06.114Z,3.63
2023-08-01T16:46:08.854Z,5.18
2023-08-01T16:49:22.081Z,7.87
2023-08-01T16:52:26.446Z,5.93
2023-08-01T16:55:28.866Z,4.45
2023-08-01T16:58:31.578Z,4.33
2023-08-01T17:01:34.022Z,5.12
2023-08-01T17:04:39.910Z,5.70
2023-08-01T17:07:42.279Z,3.75
2023-08-01T17:10:44.947Z,4.12
2023-08-01T17:13:47.707Z,4.33
2023-08-01T17:16:50.634Z,4.93
2023-08-01T17:19:53.103Z,4.47
2023-08-01T17:22:55.842Z,4.62
2023-08-01T17:25:58.502Z,4.30
2023-08-01T17:29:01.323Z,3.20
2023-08-01T17:32:04.127Z,4.40
2023-08-01T17:35:07.719Z,3.58
2023-08-01T17:38:10.381Z,4.85
2023-08-01T17:41:24.801Z,3.67
2023-08-01T17:44:35.152Z,3.80
2023-08-01T17:47:43.159Z,3.78
2023-08-01T17:50:45.490Z,6.10
2023-08-01T17:53:48.461Z,4.57
2023-08-01T17:56:50.988Z,4.57
2023-08-01T17:59:53.707Z,5.00
2023-08-01T18:02:56.040Z,3.90
2023-08-01T18:06:10.482Z,4.82
2023-08-01T18:09:13.390Z,4.32
2023-08-01T18:12:16.123Z,3.55
2023-08-01T18:15:18.676Z,3.93
2023-08-01T18:18:21.446Z,4.65
2023-08-01T18:21:24.309Z,4.75
2023-08-01T18:24:26.913Z,6.20
2023-08-01T18:27:29.273Z,6.18
2023-08-01T18:30:32.470Z,5.80
2023-08-01T18:33:35.041Z,5.22
2023-08-01T18:36:37.835Z,5.93
2023-08-01T18:39:40.203Z,5.10
2023-08-01T18:42:42.853Z,4.28
2023-08-01T18:45:54.006Z,3.83
2023-08-01T18:48:56.898Z,4.28
2023-08-01T18:51:59.285Z,5.15
2023-08-01T18:55:02.040Z,4.85
2023-08-01T18:58:05.773Z,6.32
2023-08-01T19:01:14.191Z,7.47
2023-08-01T19:04:16.573Z,5.90
2023-08-01T19:07:19.234Z,5.05
2023-08-01T19:10:21.649Z,9.10
2023-08-01T19:13:24.447Z,6.45
2023-08-01T19:16:26.904Z,5.97
2023-08-01T19:19:29.577Z,6.18
2023-08-01T19:22:32.223Z,6.47
2023-08-01T19:25:34.843Z,6.10
2023-08-01T19:28:37.812Z,5.28
2023-08-01T19:31:40.601Z,7.93
2023-08-01T19:34:50.765Z,8.48
2023-08-01T19:37:53.402Z,7.35
2023-08-01T19:41:01.883Z,5.30
2023-08-01T19:44:04.785Z,6.47
2023-08-01T19:47:07.225Z,5.20
2023-08-01T19:50:10.005Z,5.00
2023-08-01T19:53:12.596Z,5.65
2023-08-01T19:56:15.221Z,6.22
2023-08-01T19:59:17.747Z,5.20
2023-08-01T20:02:20.465Z,7.23
2023-08-01T20:05:23.574Z,5.07
2023-08-01T20:08:26.697Z,6.95
2023-08-01T20:11:29.412Z,6.20
2023-08-01T20:14:31.812Z,6.22
2023-08-01T20:17:35.188Z,5.33
2023-08-01T20:20:37.695Z,5.57
2023-08-01T20:23:40.473Z,5.62
2023-08-01T20:26:45.672Z,4.87
2023-08-01T20:29:48.308Z,8.93
2023-08-01T20:32:50.773Z,3.70
2023-08-01T20:35:58.663Z,4.70
2023-08-01T20:42:04.954Z,4.45
2023-08-01T20:45:08.115Z,4.50
2023-08-01T20:48:12.729Z,4.93
2023-08-01T20:51:15.561Z,4.57
2023-08-01T20:54:18.340Z,6.30
2023-08-01T20:57:20.855Z,5.15
2023-08-01T21:00:23.653Z,5.97
2023-08-01T21:03:27.021Z,4.50
2023-08-01T21:06:29.761Z,4.87
2023-08-01T21:09:32.895Z,4.57
2023-08-01T21:12:36.149Z,4.82
2023-08-01T21:15:38.601Z,4.57
2023-08-01T21:18:41.518Z,4.40
2023-08-01T21:21:43.880Z,4.00
2023-08-01T21:24:46.643Z,4.15
2023-08-01T21:27:49.061Z,4.10
2023-08-01T21:30:51.921Z,5.93
2023-08-01T21:33:54.425Z,4.87
2023-08-01T21:36:57.105Z,4.90
2023-08-01T21:39:59.483Z,3.95
2023-08-01T21:43:02.127Z,4.85
2023-08-01T21:46:04.544Z,5.20
2023-08-01T21:49:07.223Z,5.20
2023-08-01T21:52:09.603Z,6.00
2023-08-01T21:55:12.335Z,5.35
2023-08-01T21:58:15.957Z,6.47
2023-08-01T22:01:18.898Z,6.10
2023-08-01T22:04:21.647Z,5.47
2023-08-01T22:07:24.506Z,5.47
2023-08-01T22:10:27.797Z,6.40
2023-08-01T22:13:30.267Z,5.28
2023-08-01T22:16:32.892Z,5.53
2023-08-01T22:19:35.357Z,5.57
2023-08-01T22:22:38.462Z,6.62
2023-08-01T22:25:40.827Z,5.22
2023-08-01T22:28:43.537Z,5.40
2023-08-01T22:31:48.349Z,6.18
2023-08-01T22:34:51.147Z,4.07
2023-08-01T22:37:53.501Z,4.45
2023-08-01T22:40:56.181Z,4.62
2023-08-01T22:43:59.152Z,4.62
2023-08-01T22:47:02.425Z,5.90
2023-08-01T22:50:07.191Z,5.07
2023-08-01T22:53:10.146Z,4.72
2023-08-01T22:56:12.730Z,5.07
2023-08-01T22:59:15.418Z,5.25
2023-08-01T23:02:18.307Z,5.03
2023-08-01T23:05:21.577Z,5.33
2023-08-01T23:08:24.494Z,6.72
2023-08-01T23:11:27.193Z,5.60
2023-08-01T23:14:29.630Z,7.15
2023-08-01T23:17:34.145Z,5.12
2023-08-01T23:20:36.547Z,5.47
2023-08-01T23:23:39.144Z,5.95
2023-08-01T23:26:41.639Z,6.30
2023-08-01T23:29:44.474Z,5.50
2023-08-01T23:32:46.941Z,5.37
2023-08-01T23:35:49.787Z,5.67
2023-08-01T23:38:52.171Z,8.40
2023-08-01T23:41:55.450Z,5.82
2023-08-01T23:44:58.078Z,5.03
2023-08-01T23:48:00.879Z,4.85
2023-08-01T23:51:03.412Z,5.27
2023-08-01T23:54:06.048Z,5.45
2023-08-01T23:57:08.870Z,4.87
